Time;durP1;ratioP1;P1;durP2;ratioP2;P2;SDS_P1;SDS_P2;PMS_P1;PMS_P2;Temp;Humidity;BMP_temperature;BMP_pressure;BME280_temperature;BME280_humidity;BME280_pressure;Samples;Min_cycle;Max_cycle;Signal;HPM_P1;HPM_P2
2023/11/01 00:00:39;;;;;;;1.85;1.20;;;6.60;99.90;;;;;;4985613;28;20038;-70
2023/11/01 00:03:05;;;;;;;3.05;1.40;;;6.60;99.90;;;;;;4989771;28;20498;-70
2023/11/01 00:05:30;;;;;;;3.20;1.05;;;6.60;99.90;;;;;;4986888;28;20446;-71
2023/11/01 00:07:57;;;;;;;2.80;1.30;;;6.60;99.90;;;;;;4996009;28;20038;-70
2023/11/01 00:10:22;;;;;;;3.25;1.40;;;6.60;99.90;;;;;;4987993;28;20030;-70
2023/11/01 00:12:48;;;;;;;3.35;1.63;;;6.60;99.90;;;;;;4983555;28;20030;-69
2023/11/01 00:15:13;;;;;;;2.83;1.33;;;6.60;99.90;;;;;;4981623;28;20065;-69
2023/11/01 00:17:39;;;;;;;2.90;1.38;;;6.60;99.90;;;;;;4989692;28;20058;-69
2023/11/01 00:20:06;;;;;;;2.60;1.50;;;6.60;99.90;;;;;;4989684;28;20029;-69
2023/11/01 00:22:31;;;;;;;3.10;1.55;;;6.70;99.90;;;;;;4988303;28;20046;-70
2023/11/01 00:24:57;;;;;;;3.15;1.52;;;6.70;99.90;;;;;;4991535;28;20054;-69
2023/11/01 00:27:22;;;;;;;4.88;1.77;;;6.70;99.90;;;;;;4986244;28;20358;-70
2023/11/01 00:29:49;;;;;;;2.85;1.27;;;6.70;99.90;;;;;;4986123;28;20034;-69
2023/11/01 00:32:16;;;;;;;3.38;1.48;;;6.60;99.90;;;;;;4985164;28;20455;-69
2023/11/01 00:34:42;;;;;;;2.25;1.02;;;6.60;99.90;;;;;;4986491;28;20034;-70
2023/11/01 00:37:07;;;;;;;2.38;1.20;;;6.70;99.90;;;;;;4981898;28;20038;-70
2023/11/01 00:39:32;;;;;;;2.05;1.00;;;6.70;99.90;;;;;;4982866;28;20066;-70
2023/11/01 00:41:58;;;;;;;1.40;0.85;;;6.70;99.90;;;;;;4981927;28;20085;-70
2023/11/01 00:44:23;;;;;;;2.25;1.23;;;6.70;99.90;;;;;;4980295;28;20503;-70
2023/11/01 00:46:50;;;;;;;0.98;0.60;;;6.70;99.90;;;;;;4983492;28;20503;-70
2023/11/01 00:49:15;;;;;;;2.97;0.82;;;6.70;99.90;;;;;;4986048;28;20131;-71
2023/11/01 00:51:41;;;;;;;1.60;1.10;;;6.70;99.90;;;;;;4984033;28;20131;-69
2023/11/01 00:54:06;;;;;;;1.13;0.80;;;6.80;99.90;;;;;;4984677;28;20045;-70
2023/11/01 00:56:32;;;;;;;1.13;0.75;;;6.70;99.90;;;;;;4986612;28;20746;-70
2023/11/01 00:58:57;;;;;;;0.77;0.73;;;6.60;99.90;;;;;;4987036;28;20543;-69
2023/11/01 01:01:23;;;;;;;1.30;1.00;;;6.70;99.90;;;;;;4987767;28;20035;-70
2023/11/01 01:03:48;;;;;;;0.70;0.68;;;6.70;99.90;;;;;;4984211;28;20026;-69
2023/11/01 01:06:14;;;;;;;1.42;0.73;;;6.70;99.90;;;;;;4985422;28;20043;-69
2023/11/01 01:08:39;;;;;;;0.52;0.50;;;6.70;99.90;;;;;;4986830;28;20054;-69
2023/11/01 01:11:05;;;;;;;0.93;0.70;;;6.70;99.90;;;;;;4985239;28;20412;-71
2023/11/01 01:13:31;;;;;;;1.50;0.90;;;6.70;99.90;;;;;;4982744;28;20515;-70
2023/11/01 01:15:56;;;;;;;1.80;1.00;;;6.70;99.90;;;;;;4983716;28;20035;-70
2023/11/01 01:18:22;;;;;;;1.13;0.70;;;6.70;99.90;;;;;;4991416;28;20069;-70
2023/11/01 01:20:47;;;;;;;1.20;0.70;;;6.80;99.90;;;;;;4989165;28;20121;-71
2023/11/01 01:23:14;;;;;;;1.52;0.68;;;6.80;99.90;;;;;;4992247;28;20129;-70
2023/11/01 01:25:39;;;;;;;0.73;0.50;;;6.70;99.90;;;;;;4988180;28;20065;-69
2023/11/01 01:28:05;;;;;;;0.65;0.50;;;6.70;99.90;;;;;;4987445;28;21588;-72
2023/11/01 01:30:31;;;;;;;1.02;0.65;;;6.70;99.90;;;;;;4986565;28;20391;-69
2023/11/01 01:32:56;;;;;;;1.15;0.60;;;6.70;99.90;;;;;;4988911;28;20042;-70
2023/11/01 01:35:23;;;;;;;1.65;0.73;;;6.70;99.90;;;;;;4979746;28;20128;-69
2023/11/01 01:37:48;;;;;;;0.63;0.52;;;6.70;99.90;;;;;;4989194;28;20372;-69
2023/11/01 01:40:14;;;;;;;3.88;1.00;;;6.70;99.90;;;;;;4990679;28;20041;-70
2023/11/01 01:42:39;;;;;;;0.57;0.50;;;6.70;99.90;;;;;;4986091;28;20628;-69
2023/11/01 01:45:06;;;;;;;1.15;0.73;;;6.70;99.90;;;;;;4986749;28;20037;-70
2023/11/01 01:47:33;;;;;;;0.65;0.50;;;6.70;99.80;;;;;;4991720;28;20030;-71
2023/11/01 01:49:59;;;;;;;1.45;0.50;;;6.70;99.90;;;;;;4990439;28;20121;-71
2023/11/01 01:52:25;;;;;;;0.77;0.70;;;6.70;99.90;;;;;;4990687;28;20038;-70
2023/11/01 01:54:50;;;;;;;1.33;0.80;;;6.70;99.80;;;;;;4991856;28;20041;-70
2023/11/01 01:57:24;;;;;;;1.13;0.60;;;6.70;99.80;;;;;;4990638;28;20599;-70
2023/11/01 01:59:51;;;;;;;2.90;1.17;;;6.70;99.80;;;;;;4988721;28;20390;-70
2023/11/01 02:02:18;;;;;;;0.90;0.50;;;6.70;99.60;;;;;;4986399;28;20026;-72
2023/11/01 02:04:44;;;;;;;0.50;0.40;;;6.80;99.70;;;;;;4990890;28;20034;-70
2023/11/01 02:07:10;;;;;;;1.13;0.63;;;6.80;99.70;;;;;;4992235;28;20384;-70
2023/11/01 02:09:36;;;;;;;1.58;0.70;;;6.80;99.70;;;;;;4986485;28;20038;-71
2023/11/01 02:12:01;;;;;;;0.75;0.60;;;6.80;99.70;;;;;;4983783;28;20455;-70
2023/11/01 02:14:27;;;;;;;1.35;0.30;;;6.80;99.70;;;;;;4989251;28;20036;-70
2023/11/01 02:16:52;;;;;;;0.60;0.50;;;6.80;99.70;;;;;;4992093;28;20034;-70
2023/11/01 02:19:21;;;;;;;1.17;0.68;;;6.70;99.60;;;;;;4986894;28;20037;-69
2023/11/01 02:21:47;;;;;;;0.75;0.50;;;6.70;99.70;;;;;;4993353;28;20026;-69
2023/11/01 02:24:13;;;;;;;1.83;0.85;;;6.70;99.70;;;;;;4993790;28;20459;-70
2023/11/01 02:26:38;;;;;;;0.75;0.63;;;6.70;99.80;;;;;;4990789;28;20061;-70
2023/11/01 02:29:05;;;;;;;2.28;1.15;;;6.70;99.70;;;;;;4981468;28;20030;-70
2023/11/01 02:31:30;;;;;;;0.85;0.63;;;6.70;99.80;;;;;;4992620;28;20041;-70
2023/11/01 02:33:56;;;;;;;0.88;0.47;;;6.60;99.90;;;;;;4989074;28;20364;-70
2023/11/01 02:36:21;;;;;;;1.85;0.80;;;6.60;99.80;;;;;;4990423;28;20105;-69
2023/11/01 02:38:46;;;;;;;1.38;0.82;;;6.70;99.90;;;;;;4988024;28;20037;-70
2023/11/01 02:41:14;;;;;;;0.93;0.70;;;6.70;99.90;;;;;;4985745;28;20039;-70
2023/11/01 02:43:39;;;;;;;0.88;0.60;;;6.70;99.80;;;;;;4983363;28;20370;-69
2023/11/01 02:46:05;;;;;;;0.98;0.65;;;6.70;99.80;;;;;;4985400;28;20039;-70
2023/11/01 02:48:30;;;;;;;1.98;0.85;;;6.70;99.90;;;;;;4989847;28;20313;-70
2023/11/01 02:50:56;;;;;;;1.33;0.70;;;6.70;99.80;;;;;;4988958;28;20468;-70
2023/11/01 02:53:21;;;;;;;1.02;0.70;;;6.80;99.90;;;;;;4989207;28;20073;-70
2023/11/01 02:55:47;;;;;;;2.35;0.60;;;6.70;99.70;;;;;;4993449;28;20037;-70
2023/11/01 02:58:12;;;;;;;2.20;0.80;;;6.60;99.50;;;;;;4985558;28;20080;-70
2023/11/01 03:00:38;;;;;;;0.50;0.45;;;6.60;99.60;;;;;;4988471;28;20034;-70
2023/11/01 03:03:04;;;;;;;0.55;0.50;;;6.60;99.60;;;;;;4988273;28;20041;-70
2023/11/01 03:05:29;;;;;;;0.63;0.60;;;6.60;99.60;;;;;;4987036;28;20034;-70
2023/11/01 03:07:56;;;;;;;0.43;0.43;;;6.60;99.60;;;;;;4988708;28;20487;-70
2023/11/01 03:10:22;;;;;;;0.77;0.50;;;6.60;99.50;;;;;;4990982;28;20030;-71
2023/11/01 03:12:47;;;;;;;1.20;0.60;;;6.60;99.60;;;;;;4987433;28;20165;-70
2023/11/01 03:15:13;;;;;;;0.75;0.75;;;6.60;99.50;;;;;;4983109;28;20042;-69
2023/11/01 03:17:39;;;;;;;1.00;0.60;;;6.60;99.60;;;;;;4990919;28;20108;-71
2023/11/01 03:20:06;;;;;;;0.82;0.55;;;6.60;99.60;;;;;;4988663;28;20030;-70
2023/11/01 03:22:32;;;;;;;0.95;0.63;;;6.70;99.70;;;;;;4989425;28;20039;-70
2023/11/01 03:24:57;;;;;;;0.65;0.40;;;6.60;99.70;;;;;;4990840;28;20050;-71
2023/11/01 03:27:23;;;;;;;0.73;0.50;;;6.60;99.70;;;;;;4983962;28;20072;-71
2023/11/01 03:29:48;;;;;;;0.85;0.68;;;6.60;99.60;;;;;;4988415;28;20030;-70
2023/11/01 03:32:14;;;;;;;0.80;0.50;;;6.60;99.70;;;;;;4990562;28;20164;-70
2023/11/01 03:34:40;;;;;;;0.28;0.28;;;6.60;99.50;;;;;;4986780;28;20488;-70
2023/11/01 03:37:05;;;;;;;1.77;0.60;;;6.60;99.70;;;;;;4985539;28;20460;-72
2023/11/01 03:39:32;;;;;;;0.50;0.50;;;6.60;99.60;;;;;;4985692;28;20043;-70
2023/11/01 03:41:57;;;;;;;0.73;0.70;;;6.50;99.70;;;;;;4988687;28;20484;-71
2023/11/01 03:44:23;;;;;;;0.35;0.35;;;6.60;99.80;;;;;;4983149;28;20117;-70
2023/11/01 03:46:48;;;;;;;1.00;0.57;;;6.60;99.80;;;;;;4990943;28;20068;-69
2023/11/01 03:49:14;;;;;;;0.65;0.50;;;6.60;99.70;;;;;;4987324;28;20034;-70
2023/11/01 03:51:39;;;;;;;1.75;0.60;;;6.60;99.80;;;;;;4989395;28;20034;-70
2023/11/01 03:54:05;;;;;;;1.25;0.60;;;6.60;99.80;;;;;;4986980;28;20148;-69
2023/11/01 03:56:30;;;;;;;0.63;0.57;;;6.60;99.90;;;;;;4989782;28;20122;-69
2023/11/01 03:58:56;;;;;;;0.55;0.47;;;6.60;99.90;;;;;;4986474;28;20030;-70
2023/11/01 04:01:22;;;;;;;1.67;0.65;;;6.60;99.90;;;;;;4987821;28;20289;-73
2023/11/01 04:03:47;;;;;;;1.40;0.70;;;6.60;99.90;;;;;;4990831;28;20037;-71
2023/11/01 04:06:13;;;;;;;0.82;0.60;;;6.70;99.90;;;;;;4988502;28;20042;-70
2023/11/01 04:08:39;;;;;;;0.82;0.63;;;6.60;99.90;;;;;;4987745;28;20033;-70
2023/11/01 04:11:05;;;;;;;1.67;0.73;;;6.60;99.90;;;;;;4985653;28;20032;-72
2023/11/01 04:13:31;;;;;;;1.70;1.00;;;6.70;99.90;;;;;;4981146;28;20047;-70
2023/11/01 04:15:57;;;;;;;0.85;0.70;;;6.70;99.90;;;;;;4979775;28;20479;-70
2023/11/01 04:18:23;;;;;;;1.10;0.73;;;6.70;99.90;;;;;;4985622;28;20089;-70
2023/11/01 04:20:49;;;;;;;1.25;0.80;;;6.70;99.90;;;;;;4989378;28;20022;-70
2023/11/01 04:23:14;;;;;;;0.98;0.82;;;6.70;99.90;;;;;;4988969;28;20031;-69
2023/11/01 04:25:40;;;;;;;0.77;0.55;;;6.80;99.90;;;;;;4986232;28;20058;-70
2023/11/01 04:28:06;;;;;;;2.20;1.13;;;6.70;99.90;;;;;;4980977;28;20029;-71
2023/11/01 04:30:38;;;;;;;1.50;0.88;;;6.70;99.90;;;;;;4985343;28;20035;-70
2023/11/01 04:33:06;;;;;;;1.25;0.73;;;6.80;99.90;;;;;;4977980;28;20062;-70
2023/11/01 04:35:32;;;;;;;1.25;0.80;;;6.80;99.90;;;;;;4985285;28;20070;-70
2023/11/01 04:37:57;;;;;;;1.98;0.93;;;6.70;99.90;;;;;;4990357;28;20367;-70
2023/11/01 04:40:23;;;;;;;1.45;1.00;;;6.80;99.90;;;;;;4987041;28;20042;-69
2023/11/01 04:42:48;;;;;;;2.05;1.10;;;6.80;99.90;;;;;;4978635;28;20181;-70
2023/11/01 04:45:15;;;;;;;2.25;1.02;;;6.80;99.90;;;;;;4984838;28;20037;-70
2023/11/01 04:47:42;;;;;;;1.95;1.02;;;6.80;99.90;;;;;;4990530;28;20030;-69
2023/11/01 04:50:10;;;;;;;2.67;1.05;;;6.80;99.90;;;;;;4987948;28;20031;-72
2023/11/01 04:52:37;;;;;;;1.83;0.90;;;6.80;99.90;;;;;;4985364;28;20628;-70
2023/11/01 04:55:04;;;;;;;3.35;1.13;;;6.80;99.90;;;;;;4993215;28;20026;-69
2023/11/01 04:57:30;;;;;;;2.17;0.90;;;6.90;99.90;;;;;;4992337;28;20105;-70
2023/11/01 04:59:56;;;;;;;3.92;1.08;;;6.90;99.90;;;;;;4994609;28;20436;-71
2023/11/01 05:02:21;;;;;;;2.10;1.13;;;6.90;99.90;;;;;;4989895;28;20125;-70
2023/11/01 05:04:47;;;;;;;2.70;1.35;;;6.90;99.90;;;;;;4988479;28;20491;-69
2023/11/01 05:07:13;;;;;;;3.38;1.38;;;6.90;99.90;;;;;;4982362;28;20035;-69
2023/11/01 05:09:38;;;;;;;3.83;1.45;;;6.90;99.90;;;;;;4982039;28;20183;-68
2023/11/01 05:12:04;;;;;;;5.18;1.38;;;6.90;99.90;;;;;;4991440;28;20030;-68
2023/11/01 05:14:29;;;;;;;2.75;1.40;;;7.00;99.90;;;;;;4992209;28;20049;-70
2023/11/01 05:16:56;;;;;;;1.83;1.13;;;6.90;99.90;;;;;;4986027;28;20035;-69
2023/11/01 05:19:22;;;;;;;3.05;1.50;;;6.90;99.90;;;;;;4990755;28;20463;-68
2023/11/01 05:21:47;;;;;;;3.13;1.70;;;7.00;99.90;;;;;;4984795;28;20041;-70
2023/11/01 05:24:13;;;;;;;3.25;1.23;;;7.00;99.90;;;;;;4995923;28;20440;-69
2023/11/01 05:26:39;;;;;;;3.50;1.30;;;7.10;99.90;;;;;;4984412;28;20121;-66
2023/11/01 05:29:05;;;;;;;2.75;1.45;;;7.10;99.90;;;;;;4989973;28;20037;-66
2023/11/01 05:31:34;;;;;;;2.70;1.40;;;7.10;99.90;;;;;;4989880;28;20046;-66
2023/11/01 05:34:01;;;;;;;4.18;1.88;;;7.10;99.90;;;;;;4990554;28;20034;-66
2023/11/01 05:36:27;;;;;;;3.33;1.90;;;7.10;99.90;;;;;;4990476;28;20026;-65
2023/11/01 05:38:53;;;;;;;6.13;1.95;;;7.10;99.90;;;;;;4986857;28;20583;-65
2023/11/01 05:41:19;;;;;;;3.78;1.45;;;7.10;99.90;;;;;;4988388;28;20525;-65
2023/11/01 05:43:45;;;;;;;2.17;1.33;;;7.10;99.90;;;;;;4989192;28;20109;-65
2023/11/01 05:46:10;;;;;;;4.35;2.17;;;7.10;99.90;;;;;;4992121;28;20041;-66
2023/11/01 05:48:36;;;;;;;4.38;1.60;;;7.20;99.90;;;;;;4992144;28;20060;-66
2023/11/01 05:51:03;;;;;;;5.25;1.70;;;7.20;99.90;;;;;;4991080;28;20023;-67
2023/11/01 05:53:29;;;;;;;3.78;2.00;;;7.20;99.90;;;;;;4984869;28;20046;-67
2023/11/01 05:55:54;;;;;;;2.80;1.20;;;7.20;99.90;;;;;;4983913;28;20034;-67
2023/11/01 05:58:20;;;;;;;5.07;1.90;;;7.20;99.90;;;;;;4986519;28;20481;-65
2023/11/01 06:00:49;;;;;;;5.40;2.22;;;7.30;99.90;;;;;;4988805;28;20439;-67
2023/11/01 06:03:15;;;;;;;4.20;1.98;;;7.20;99.90;;;;;;4987547;28;20035;-67
2023/11/01 06:05:41;;;;;;;3.35;1.90;;;7.30;99.90;;;;;;4990221;28;20088;-66
2023/11/01 06:08:10;;;;;;;3.47;1.77;;;7.30;99.90;;;;;;4996775;28;20121;-68
2023/11/01 06:10:36;;;;;;;5.90;2.45;;;7.30;99.90;;;;;;4990271;28;20045;-66
2023/11/01 06:13:03;;;;;;;3.55;1.75;;;7.30;99.90;;;;;;4986762;28;20073;-66
2023/11/01 06:15:28;;;;;;;2.97;1.83;;;7.40;99.90;;;;;;4989047;28;20038;-66
2023/11/01 06:17:54;;;;;;;4.97;2.20;;;7.40;99.90;;;;;;4991697;28;20037;-66
2023/11/01 06:20:20;;;;;;;5.30;2.22;;;7.40;99.90;;;;;;4989342;28;20034;-66
2023/11/01 06:22:45;;;;;;;5.65;3.00;;;7.40;99.90;;;;;;4983233;28;20058;-67
2023/11/01 06:25:11;;;;;;;6.57;2.28;;;7.40;99.90;;;;;;4985774;28;20076;-65
2023/11/01 06:27:38;;;;;;;7.57;2.65;;;7.50;99.90;;;;;;4987041;28;20100;-67
2023/11/01 06:30:05;;;;;;;4.60;2.17;;;7.50;99.90;;;;;;4988368;28;20038;-67
2023/11/01 06:32:32;;;;;;;4.65;1.98;;;7.50;99.90;;;;;;4986522;28;20117;-67
2023/11/01 06:34:58;;;;;;;4.90;2.22;;;7.50;99.90;;;;;;4986903;28;20472;-67
2023/11/01 06:37:23;;;;;;;5.47;2.42;;;7.60;99.90;;;;;;4993517;28;20038;-66
2023/11/01 06:39:48;;;;;;;4.20;2.10;;;7.50;99.90;;;;;;4986416;28;20035;-67
2023/11/01 06:42:14;;;;;;;5.18;2.75;;;7.60;99.90;;;;;;4991830;28;20513;-67
2023/11/01 06:44:39;;;;;;;4.65;2.42;;;7.60;99.90;;;;;;4989064;28;20040;-66
2023/11/01 06:47:05;;;;;;;5.38;2.38;;;7.60;99.90;;;;;;4991885;28;20065;-66
2023/11/01 06:49:34;;;;;;;5.15;2.25;;;7.60;99.90;;;;;;4989310;28;20411;-67
2023/11/01 06:51:59;;;;;;;7.13;2.83;;;7.70;99.90;;;;;;4985113;28;20031;-66
2023/11/01 06:54:25;;;;;;;5.47;2.67;;;7.70;99.90;;;;;;4987401;28;20038;-66
2023/11/01 06:56:50;;;;;;;6.53;2.70;;;7.70;99.90;;;;;;4999046;28;20041;-67
2023/11/01 06:59:16;;;;;;;5.35;2.63;;;7.80;99.90;;;;;;4980853;28;20042;-67
2023/11/01 07:01:41;;;;;;;6.30;2.53;;;7.80;99.90;;;;;;4989011;28;20030;-66
2023/11/01 07:04:07;;;;;;;5.60;2.83;;;7.80;99.90;;;;;;4991487;28;20034;-66
2023/11/01 07:06:32;;;;;;;4.82;2.35;;;7.90;99.90;;;;;;4984081;28;20043;-66
2023/11/01 07:08:58;;;;;;;5.97;3.08;;;7.90;99.90;;;;;;4988430;28;20472;-66
2023/11/01 07:11:24;;;;;;;7.00;3.05;;;8.00;99.90;;;;;;4984666;28;20169;-66
2023/11/01 07:13:50;;;;;;;6.28;2.88;;;8.00;99.90;;;;;;4979734;28;20030;-66
2023/11/01 07:16:16;;;;;;;6.32;3.35;;;8.00;99.90;;;;;;4982406;28;20034;-67
2023/11/01 07:18:41;;;;;;;6.30;3.17;;;8.10;99.90;;;;;;4984751;28;20086;-66
2023/11/01 07:21:10;;;;;;;7.82;2.97;;;8.10;99.90;;;;;;4986931;28;20109;-66
2023/11/01 07:23:36;;;;;;;5.72;3.05;;;8.10;99.90;;;;;;4988052;28;20035;-66
2023/11/01 07:26:01;;;;;;;5.88;2.92;;;8.10;99.90;;;;;;4985974;28;20525;-66
2023/11/01 07:28:27;;;;;;;6.25;3.63;;;8.10;99.90;;;;;;4987445;28;20034;-67
2023/11/01 07:30:53;;;;;;;6.05;3.28;;;8.20;99.90;;;;;;4990741;28;20383;-66
2023/11/01 07:33:18;;;;;;;6.75;2.80;;;8.20;99.90;;;;;;4987984;28;20034;-66
2023/11/01 07:35:44;;;;;;;7.32;3.50;;;8.30;99.90;;;;;;4990687;28;20161;-66
2023/11/01 07:38:09;;;;;;;6.85;3.47;;;8.30;99.90;;;;;;4990007;28;20108;-66
2023/11/01 07:40:35;;;;;;;6.40;3.28;;;8.30;99.90;;;;;;4985590;28;20046;-67
2023/11/01 07:43:00;;;;;;;6.90;3.47;;;8.40;99.90;;;;;;4978077;28;20050;-67
2023/11/01 07:45:26;;;;;;;7.88;4.00;;;8.50;99.90;;;;;;4978883;28;20039;-66
2023/11/01 07:47:51;;;;;;;6.25;3.33;;;8.50;99.90;;;;;;4990827;28;20119;-65
2023/11/01 07:50:17;;;;;;;7.65;3.45;;;8.60;99.90;;;;;;4982663;28;20344;-64
2023/11/01 07:52:43;;;;;;;7.13;3.05;;;8.70;99.90;;;;;;4987285;28;20034;-65
2023/11/01 07:55:09;;;;;;;6.03;3.28;;;8.70;99.90;;;;;;4993484;28;20033;-67
2023/11/01 07:57:35;;;;;;;7.05;3.40;;;8.80;99.90;;;;;;4993144;28;20446;-64
2023/11/01 08:00:02;;;;;;;7.07;3.60;;;8.90;99.90;;;;;;4986127;28;20038;-65
2023/11/01 08:02:27;;;;;;;6.85;3.17;;;9.00;99.90;;;;;;4991244;28;20032;-66
2023/11/01 08:04:53;;;;;;;7.40;3.38;;;9.00;99.90;;;;;;4987308;28;20152;-65
2023/11/01 08:07:19;;;;;;;9.13;4.07;;;9.10;99.90;;;;;;4990758;28;20098;-66
2023/11/01 08:09:44;;;;;;;6.65;3.33;;;9.10;99.90;;;;;;4989484;28;20058;-65
2023/11/01 08:12:10;;;;;;;6.43;3.50;;;9.10;99.90;;;;;;4984054;28;20034;-65
2023/11/01 08:14:35;;;;;;;6.78;3.60;;;9.10;99.90;;;;;;4987851;28;20039;-66
2023/11/01 08:17:01;;;;;;;7.97;3.70;;;9.20;99.90;;;;;;4990792;28;20030;-65
2023/11/01 08:19:27;;;;;;;6.53;3.30;;;9.20;99.90;;;;;;4991218;28;20475;-65
2023/11/01 08:21:52;;;;;;;6.88;3.38;;;9.20;99.90;;;;;;4990832;28;20071;-66
2023/11/01 08:24:18;;;;;;;6.00;3.40;;;9.30;99.90;;;;;;4991902;28;20157;-65
2023/11/01 08:26:43;;;;;;;6.45;3.40;;;9.40;99.90;;;;;;4987370;28;20085;-65
2023/11/01 08:29:12;;;;;;;6.93;3.08;;;9.50;99.90;;;;;;4983761;28;20034;-65
2023/11/01 08:31:37;;;;;;;7.55;3.60;;;9.50;99.90;;;;;;4988909;28;20096;-65
2023/11/01 08:34:03;;;;;;;7.45;3.58;;;9.50;99.90;;;;;;4988498;28;20038;-65
2023/11/01 08:36:28;;;;;;;6.72;2.83;;;9.60;99.90;;;;;;4990064;28;20030;-65
2023/11/01 08:38:54;;;;;;;5.97;2.95;;;9.60;99.90;;;;;;4990498;28;20108;-66
2023/11/01 08:41:19;;;;;;;7.03;3.63;;;9.70;99.90;;;;;;4981034;28;20044;-68
2023/11/01 08:43:45;;;;;;;5.70;3.00;;;9.80;99.90;;;;;;4983005;28;20537;-67
2023/11/01 08:46:12;;;;;;;6.63;3.67;;;9.90;99.90;;;;;;4988289;28;20150;-65
2023/11/01 08:48:38;;;;;;;5.65;3.13;;;10.00;99.90;;;;;;4989523;28;20118;-65
2023/11/01 08:51:04;;;;;;;6.10;2.55;;;10.10;99.90;;;;;;4989390;28;20034;-65
2023/11/01 08:53:29;;;;;;;6.40;3.50;;;10.10;99.90;;;;;;4991164;28;20030;-65
2023/11/01 08:55:54;;;;;;;6.22;3.13;;;10.20;99.90;;;;;;4979865;28;20525;-66
2023/11/01 08:58:20;;;;;;;5.05;2.60;;;10.20;99.90;;;;;;4986651;28;20452;-65
2023/11/01 09:00:46;;;;;;;5.10;2.92;;;10.20;99.90;;;;;;4984801;28;20109;-65
2023/11/01 09:03:12;;;;;;;5.13;2.90;;;10.20;99.90;;;;;;4986798;28;20125;-65
2023/11/01 09:05:37;;;;;;;4.68;2.88;;;10.30;99.90;;;;;;4986958;28;20425;-66
2023/11/01 09:08:03;;;;;;;6.05;3.10;;;10.40;99.90;;;;;;4991190;28;20030;-65
2023/11/01 09:10:30;;;;;;;6.00;3.10;;;10.40;99.90;;;;;;4988787;28;20376;-65
2023/11/01 09:12:56;;;;;;;6.03;3.15;;;10.50;99.90;;;;;;4983317;28;20068;-66
2023/11/01 09:15:21;;;;;;;6.10;3.15;;;10.50;99.90;;;;;;4981100;28;20129;-68
2023/11/01 09:17:47;;;;;;;4.70;2.92;;;10.60;99.90;;;;;;4991828;28;20034;-69
2023/11/01 09:20:13;;;;;;;5.82;2.85;;;10.70;99.90;;;;;;4986235;28;20080;-65
2023/11/01 09:22:38;;;;;;;4.38;2.53;;;10.80;99.90;;;;;;4989767;28;20049;-65
2023/11/01 09:25:04;;;;;;;5.07;2.40;;;10.80;99.90;;;;;;4986245;28;20046;-66
2023/11/01 09:27:29;;;;;;;4.45;2.30;;;10.70;99.90;;;;;;4981025;28;20038;-68
2023/11/01 09:29:55;;;;;;;6.45;3.20;;;10.80;99.90;;;;;;4984982;28;20031;-65
2023/11/01 09:32:20;;;;;;;4.15;2.22;;;10.90;99.90;;;;;;4991093;28;20133;-67
2023/11/01 09:34:46;;;;;;;3.50;1.98;;;11.10;99.90;;;;;;4986668;28;20402;-65
2023/11/01 09:37:11;;;;;;;3.30;2.20;;;11.00;99.50;;;;;;4990949;28;20534;-65
2023/11/01 09:39:37;;;;;;;4.05;2.10;;;11.10;99.70;;;;;;4991353;28;20070;-65
2023/11/01 09:42:21;;;;;;;3.42;2.10;;;11.10;99.40;;;;;;4990949;28;20157;-66
2023/11/01 09:44:49;;;;;;;2.80;1.98;;;11.30;99.50;;;;;;4975353;28;20538;-66
2023/11/01 09:47:16;;;;;;;3.33;1.83;;;11.30;99.30;;;;;;4994227;28;20023;-66
2023/11/01 09:49:45;;;;;;;3.63;1.70;;;11.40;99.40;;;;;;4990302;28;20089;-67
2023/11/01 09:52:11;;;;;;;2.90;2.10;;;11.30;99.20;;;;;;4989302;28;20487;-64
2023/11/01 09:54:36;;;;;;;2.97;1.88;;;11.40;99.20;;;;;;4992060;28;20081;-66
2023/11/01 09:57:05;;;;;;;3.47;1.73;;;11.30;99.10;;;;;;4990575;28;20399;-65
2023/11/01 09:59:32;;;;;;;3.53;1.60;;;11.30;99.00;;;;;;4987180;28;20038;-64
2023/11/01 10:02:02;;;;;;;3.08;1.70;;;11.40;98.60;;;;;;4994827;28;20104;-65
2023/11/01 10:04:28;;;;;;;4.03;1.70;;;11.40;98.70;;;;;;4990547;28;20061;-64
2023/11/01 10:06:53;;;;;;;2.85;1.63;;;11.50;98.90;;;;;;4990612;28;20444;-65
2023/11/01 10:09:19;;;;;;;2.30;1.70;;;11.50;98.90;;;;;;4991447;28;20123;-65
2023/11/01 10:11:45;;;;;;;2.15;1.48;;;11.50;99.20;;;;;;4992021;28;20043;-64
2023/11/01 10:14:12;;;;;;;1.65;1.20;;;11.50;99.10;;;;;;4986454;28;20038;-64
2023/11/01 10:16:38;;;;;;;2.00;1.33;;;11.50;99.20;;;;;;4991957;28;20391;-64
2023/11/01 10:19:04;;;;;;;4.28;1.70;;;11.50;99.20;;;;;;4992095;28;20061;-68
2023/11/01 10:21:30;;;;;;;1.80;1.15;;;11.50;99.30;;;;;;4992406;28;20471;-66
2023/11/01 10:23:57;;;;;;;1.45;1.00;;;11.50;99.40;;;;;;4990326;28;20038;-67
2023/11/01 10:26:26;;;;;;;1.55;1.00;;;11.50;99.60;;;;;;4990494;28;20049;-66
2023/11/01 10:28:52;;;;;;;1.73;0.70;;;11.60;99.60;;;;;;4989377;28;20018;-65
2023/11/01 10:31:17;;;;;;;1.45;0.88;;;11.60;99.80;;;;;;4987732;28;20073;-66
2023/11/01 10:33:43;;;;;;;1.10;0.90;;;11.50;99.70;;;;;;4992473;28;20480;-66
2023/11/01 10:36:09;;;;;;;1.15;0.80;;;11.60;99.90;;;;;;4988722;28;20110;-66
2023/11/01 10:38:34;;;;;;;2.40;1.30;;;11.50;99.90;;;;;;4988396;28;20027;-67
2023/11/01 10:41:02;;;;;;;1.52;0.80;;;11.40;99.90;;;;;;4985164;28;20093;-66
2023/11/01 10:43:28;;;;;;;1.05;0.70;;;11.40;99.90;;;;;;4987649;28;20117;-65
2023/11/01 10:45:59;;;;;;;0.77;0.60;;;11.40;99.90;;;;;;4989039;28;20042;-65
2023/11/01 10:48:26;;;;;;;0.60;0.60;;;11.60;99.90;;;;;;4987214;28;20412;-68
2023/11/01 10:50:55;;;;;;;1.08;0.65;;;11.50;99.90;;;;;;4990713;28;20069;-66
2023/11/01 10:53:24;;;;;;;0.75;0.60;;;11.50;99.90;;;;;;4991560;28;20046;-66
2023/11/01 10:55:53;;;;;;;0.63;0.60;;;11.50;99.90;;;;;;4992437;28;20469;-66
2023/11/01 10:58:24;;;;;;;0.52;0.38;;;11.60;99.90;;;;;;4983414;28;20026;-66
2023/11/01 11:01:08;;;;;;;0.95;0.40;;;11.60;99.90;;;;;;4992524;28;20089;-66
2023/11/01 11:03:46;;;;;;;0.73;0.43;;;11.50;99.90;;;;;;4991864;28;20069;-66
2023/11/01 11:06:16;;;;;;;0.20;0.20;;;11.60;99.90;;;;;;4993003;28;20034;-65
2023/11/01 11:08:42;;;;;;;0.40;0.40;;;11.60;99.90;;;;;;4991957;28;20038;-66
2023/11/01 11:11:16;;;;;;;0.30;0.30;;;11.60;99.90;;;;;;4989061;28;20045;-69
2023/11/01 11:13:42;;;;;;;0.40;0.40;;;11.70;99.90;;;;;;4985450;28;20505;-66
2023/11/01 11:16:10;;;;;;;0.57;0.40;;;11.70;99.90;;;;;;4989343;28;20384;-67
2023/11/01 11:18:42;;;;;;;1.10;0.40;;;11.60;99.90;;;;;;4992748;28;20109;-66
2023/11/01 11:21:07;;;;;;;0.20;0.20;;;11.60;99.90;;;;;;4990717;28;20132;-66
2023/11/01 11:23:35;;;;;;;0.32;0.32;;;11.60;99.90;;;;;;4990842;28;20086;-66
2023/11/01 11:26:02;;;;;;;0.30;0.30;;;11.60;99.90;;;;;;4993819;28;20133;-67
2023/11/01 11:28:47;;;;;;;0.40;0.40;;;11.50;99.90;;;;;;4986570;28;20502;-65
2023/11/01 11:31:23;;;;;;;1.08;0.50;;;11.50;99.90;;;;;;4988546;28;20022;-66
2023/11/01 11:33:49;;;;;;;0.22;0.22;;;11.50;99.90;;;;;;4989696;28;20394;-66
2023/11/01 11:36:25;;;;;;;0.28;0.28;;;11.60;99.90;;;;;;4991880;28;20033;-65
2023/11/01 11:38:57;;;;;;;0.43;0.40;;;11.60;99.90;;;;;;4990074;28;20615;-66
2023/11/01 11:41:28;;;;;;;0.77;0.45;;;11.60;99.90;;;;;;4982397;28;20044;-65
2023/11/01 11:44:11;;;;;;;0.35;0.35;;;11.60;99.90;;;;;;4986496;28;20022;-66
2023/11/01 11:46:44;;;;;;;0.70;0.47;;;11.60;99.90;;;;;;4989974;28;20530;-66
2023/11/01 11:49:28;;;;;;;0.45;0.43;;;11.60;99.90;;;;;;4991015;28;20462;-65
2023/11/01 11:52:03;;;;;;;0.75;0.50;;;11.60;99.90;;;;;;4986372;28;20081;-66
2023/11/01 11:54:30;;;;;;;0.40;0.40;;;11.60;99.90;;;;;;4989037;28;20042;-66
2023/11/01 11:57:03;;;;;;;0.60;0.50;;;11.60;99.90;;;;;;4990257;28;20026;-69
2023/11/01 11:59:29;;;;;;;0.30;0.30;;;11.60;99.90;;;;;;4990031;28;20041;-66
2023/11/01 12:01:56;;;;;;;0.28;0.28;;;11.60;99.90;;;;;;4989754;28;20049;-67
2023/11/01 12:04:27;;;;;;;0.50;0.40;;;11.60;99.90;;;;;;4990252;28;20050;-67
2023/11/01 12:06:54;;;;;;;0.30;0.30;;;11.50;99.90;;;;;;4988032;28;20014;-69
2023/11/01 12:09:20;;;;;;;1.20;0.73;;;11.60;99.90;;;;;;4987773;28;20482;-66
2023/11/01 12:11:53;;;;;;;0.50;0.50;;;11.60;99.90;;;;;;4989649;28;20042;-66
2023/11/01 12:14:24;;;;;;;0.70;0.68;;;11.60;99.90;;;;;;4981916;28;20045;-67
2023/11/01 12:16:50;;;;;;;29.30;10.98;;;11.60;99.90;;;;;;4989381;28;20022;-66
2023/11/01 12:19:24;;;;;;;13.48;5.65;;;11.60;99.90;;;;;;4989193;28;20486;-66
2023/11/01 12:21:54;;;;;;;9.90;3.80;;;11.60;99.90;;;;;;4991345;28;20037;-67
2023/11/01 12:24:26;;;;;;;5.03;2.20;;;11.60;99.90;;;;;;4987646;28;20031;-66
2023/11/01 12:27:11;;;;;;;23.77;7.72;;;11.60;99.90;;;;;;4986487;28;20430;-65
2023/11/01 12:29:44;;;;;;;8.82;2.83;;;11.70;99.90;;;;;;4987361;28;20446;-67
2023/11/01 12:32:13;;;;;;;8.07;2.92;;;11.70;99.90;;;;;;4988290;28;20037;-66
2023/11/01 12:34:47;;;;;;;13.32;4.32;;;11.80;99.90;;;;;;4989430;28;20030;-67
2023/11/01 12:37:18;;;;;;;12.32;5.25;;;11.90;99.90;;;;;;4988587;28;20434;-65
2023/11/01 12:40:05;;;;;;;;;;;12.00;99.90;;;;;;4986276;28;20034;-65
2023/11/01 12:42:32;;;;;;;6.97;2.65;;;12.00;99.90;;;;;;4985236;28;19906;-66
2023/11/01 12:44:58;;;;;;;3.65;1.58;;;12.10;99.90;;;;;;4981278;28;20035;-67
2023/11/01 12:47:24;;;;;;;4.50;2.22;;;12.10;99.90;;;;;;4988445;28;20041;-66
2023/11/01 12:49:52;;;;;;;3.58;1.90;;;12.20;99.90;;;;;;4987359;28;20030;-66